| time (UTC) | temp F | wind direction | speed knots | gust knots | rain 1hr in | rain 24hr in | rain mn in | humidity % | barometer mb |
| 20260510154007 | 78 | 360 | 0.9 | 9.6 | 0.01 | 0.41 | 0.41 | 69 | 1014.5 |
| 20260510153506 | 78 | 157 | 2.6 | 12.2 | 0.01 | 0.41 | 0.41 | 69 | 1014.3 |
| 20260510153037 | 77 | 360 | 2.6 | 12.2 | 0.02 | 0.41 | 0.41 | 71 | 1014.2 |
| 20260510152504 | 76 | 186 | 2.6 | 9.6 | 0.02 | 0.41 | 0.41 | 73 | 1014.2 |
| 20260510152004 | 75 | 186 | 1.7 | 7.8 | 0.02 | 0.41 | 0.41 | 74 | 1014.3 |
| 20260510151512 | 74 | 181 | 0.9 | 7.8 | 0.02 | 0.41 | 0.41 | 77 | 1014.4 |
| 20260510151006 | 74 | 360 | 1.7 | 7.8 | 0.02 | 0.41 | 0.41 | 79 | 1014.4 |
| 20260510150505 | 73 | 29 | 0.9 | 7.0 | 0.03 | 0.41 | 0.41 | 80 | 1014.4 |
| 20260510150019 | 73 | 212 | 0.9 | 7.0 | 0.02 | 0.40 | 0.40 | 82 | 1014.3 |
| 20260510145507 | 72 | 257 | 0.9 | 11.3 | 0.02 | 0.40 | 0.40 | 82 | 1014.2 |
| 20260510145011 | 71 | 360 | 3.5 | 11.3 | 0.03 | 0.40 | 0.40 | 83 | 1014.1 |
| 20260510144530 | 71 | 183 | 0.9 | 7.0 | 0.03 | 0.40 | 0.40 | 84 | 1014.1 |
| 20260510144008 | 70 | 360 | 1.7 | 7.0 | 0.03 | 0.40 | 0.40 | 86 | 1014.2 |
| 20260510143511 | 70 | 240 | 0.0 | 5.2 | 0.04 | 0.40 | 0.40 | 88 | 1014.3 |
| 20260510143032 | 69 | 95 | 0.9 | 8.7 | 0.03 | 0.39 | 0.39 | 89 | 1014.4 |
| 20260510142507 | 69 | 166 | 0.9 | 8.7 | 0.03 | 0.39 | 0.39 | 90 | 1014.6 |
| 20260510142012 | 68 | 159 | 0.9 | 8.7 | 0.03 | 0.39 | 0.39 | 92 | 1014.6 |
| 20260510141513 | 68 | 144 | 0.9 | 9.6 | 0.03 | 0.39 | 0.39 | 93 | 1014.7 |
| 20260510141005 | 67 | 360 | 0.9 | 9.6 | 0.04 | 0.39 | 0.39 | 93 | 1015.0 |
| 20260510140503 | 67 | 360 | 0.9 | 5.2 | 0.03 | 0.38 | 0.38 | 94 | 1015.1 |
| 20260510140012 | 66 | 199 | 0.9 | 4.3 | 0.03 | 0.38 | 0.38 | 94 | 1015.2 |
| 20260510135506 | 66 | 163 | 0.0 | 3.5 | 0.04 | 0.38 | 0.38 | 94 | 1015.4 |
| 20260510135006 | 66 | 220 | 0.0 | 5.2 | 0.03 | 0.37 | 0.37 | 94 | 1015.7 |
| 20260510134520 | 66 | 215 | 0.0 | 5.2 | 0.03 | 0.37 | 0.37 | 94 | 1015.8 |
| 20260510134006 | 66 | 175 | 0.0 | 3.5 | 0.04 | 0.37 | 0.37 | 94 | 1015.7 |
| 20260510133506 | 66 | 213 | 0.0 | 5.2 | 0.03 | 0.36 | 0.36 | 94 | 1015.7 |
| 20260510133038 | 66 | 147 | 0.9 | 6.1 | 0.03 | 0.36 | 0.36 | 95 | 1015.5 |
| 20260510132514 | 66 | 138 | 0.0 | 6.1 | 0.03 | 0.36 | 0.36 | 95 | 1015.6 |
| 20260510132011 | 66 | 182 | 0.0 | 4.3 | 0.04 | 0.36 | 0.36 | 95 | 1015.5 |
| 20260510131526 | 65 | 142 | 0.9 | 4.3 | 0.04 | 0.36 | 0.36 | 95 | 1015.4 |
| 20260510131010 | 65 | 162 | 0.0 | 7.0 | 0.03 | 0.35 | 0.35 | 95 | 1015.5 |
| 20260510130509 | 65 | 174 | 0.9 | 7.0 | 0.04 | 0.35 | 0.35 | 95 | 1015.5 |
| 20260510130011 | 65 | 161 | 0.0 | 4.3 | 0.04 | 0.35 | 0.35 | 95 | 1015.4 |
| 20260510125503 | 65 | 157 | 0.0 | 5.2 | 0.03 | 0.34 | 0.34 | 95 | 1015.4 |
| 20260510125009 | 65 | 132 | 0.0 | 5.2 | 0.04 | 0.34 | 0.34 | 95 | 1015.5 |
| 20260510124518 | 65 | 153 | 0.0 | 3.5 | 0.04 | 0.34 | 0.34 | 95 | 1015.4 |
| 20260510124012 | 64 | 145 | 0.0 | 3.5 | 0.04 | 0.33 | 0.33 | 94 | 1015.4 |
| 20260510123504 | 64 | 117 | 0.0 | 4.3 | 0.04 | 0.33 | 0.33 | 94 | 1015.2 |
| 20260510123021 | 64 | 148 | 0.0 | 4.3 | 0.05 | 0.33 | 0.33 | 94 | 1015.0 |
| 20260510122506 | 64 | 360 | 0.0 | 6.1 | 0.05 | 0.33 | 0.33 | 94 | 1014.9 |
| 20260510122010 | 64 | 156 | 0.0 | 7.0 | 0.05 | 0.32 | 0.32 | 94 | 1014.9 |
| 20260510121506 | 64 | 142 | 0.0 | 7.0 | 0.05 | 0.32 | 0.32 | 94 | 1014.7 |
| 20260510121006 | 64 | 142 | 0.9 | 7.0 | 0.05 | 0.32 | 0.32 | 94 | 1014.7 |
| 20260510120504 | 64 | 136 | 0.9 | 7.0 | 0.05 | 0.31 | 0.31 | 94 | 1014.6 |
| 20260510120009 | 64 | 123 | 1.7 | 4.3 | 0.06 | 0.31 | 0.31 | 94 | 1014.8 |
| 20260510115508 | 64 | 136 | 1.7 | 3.5 | 0.06 | 0.31 | 0.31 | 94 | 1014.7 |
| 20260510115010 | 64 | 135 | 0.9 | 3.5 | 0.06 | 0.30 | 0.30 | 94 | 1014.8 |
| 20260510114518 | 64 | 145 | 0.0 | 2.6 | 0.07 | 0.30 | 0.30 | 94 | 1014.8 |
| 20260510114006 | 64 | 145 | 0.0 | 2.6 | 0.06 | 0.29 | 0.29 | 94 | 1014.7 |
| 20260510113504 | 64 | 139 | 0.0 | 0.9 | 0.07 | 0.29 | 0.29 | 94 | 1014.9 |
| 20260510113021 | 64 | 139 | 0.0 | 0.0 | 0.07 | 0.28 | 0.28 | 94 | 1014.7 |
| 20260510112504 | 64 | 139 | 0.0 | 0.0 | 0.09 | 0.28 | 0.28 | 94 | 1014.7 |
| 20260510112005 | 64 | 139 | 0.0 | 2.6 | 0.09 | 0.27 | 0.27 | 94 | 1014.7 |
| 20260510111519 | 64 | 139 | 0.0 | 3.5 | 0.10 | 0.27 | 0.27 | 94 | 1014.5 |
| 20260510111007 | 64 | 141 | 0.0 | 3.5 | 0.11 | 0.27 | 0.27 | 94 | 1014.4 |
| 20260510110511 | 64 | 133 | 0.0 | 5.2 | 0.12 | 0.26 | 0.26 | 94 | 1014.4 |
| 20260510110009 | 64 | 133 | 1.7 | 7.0 | 0.12 | 0.25 | 0.25 | 94 | 1014.3 |
| 20260510105504 | 64 | 122 | 2.6 | 7.8 | 0.14 | 0.25 | 0.25 | 94 | 1014.3 |
| 20260510105003 | 64 | 140 | 0.9 | 7.8 | 0.15 | 0.24 | 0.24 | 94 | 1014.1 |
| 20260510104510 | 64 | 155 | 0.0 | 7.8 | 0.16 | 0.23 | 0.23 | 94 | 1014.1 |
| 20260510104005 | 64 | 136 | 0.0 | 6.1 | 0.18 | 0.23 | 0.23 | 94 | 1013.9 |
| 20260510103505 | 64 | 135 | 2.6 | 9.6 | 0.20 | 0.22 | 0.22 | 93 | 1013.8 |
| 20260510103015 | 64 | 360 | 4.3 | 9.6 | 0.21 | 0.21 | 0.21 | 93 | 1013.7 |
| 20260510102506 | 64 | 118 | 3.5 | 9.6 | 0.19 | 0.19 | 0.19 | 93 | 1014.1 |
| 20260510102006 | 64 | 92 | 2.6 | 7.8 | 0.18 | 0.18 | 0.18 | 93 | 1014.0 |
| 20260510101520 | 64 | 49 | 2.6 | 9.6 | 0.17 | 0.17 | 0.17 | 93 | 1014.1 |
| 20260510101005 | 64 | 65 | 2.6 | 17.4 | 0.16 | 0.16 | 0.16 | 93 | 1014.0 |
| 20260510100506 | 64 | 76 | 5.2 | 17.4 | 0.14 | 0.14 | 0.14 | 93 | 1013.8 |
| 20260510100022 | 64 | 142 | 8.7 | 17.4 | 0.13 | 0.13 | 0.13 | 92 | 1013.2 |
| 20260510095508 | 64 | 360 | 8.7 | 17.4 | 0.11 | 0.11 | 0.11 | 92 | 1013.4 |
| 20260510095007 | 65 | 63 | 6.1 | 13.9 | 0.09 | 0.09 | 0.09 | 91 | 1014.7 |
| 20260510094509 | 65 | 37 | 7.0 | 13.9 | 0.07 | 0.07 | 0.07 | 89 | 1015.0 |
| 20260510094002 | 66 | 40 | 7.0 | 17.4 | 0.05 | 0.05 | 0.05 | 88 | 1015.1 |
| 20260510093505 | 67 | 21 | 10.4 | 20.0 | 0.02 | 0.02 | 0.02 | 85 | 1014.9 |
| 20260510093012 | 69 | 101 | 7.8 | 20.0 | 0.00 | 0.00 | 0.00 | 82 | 1014.6 |
| 20260510092507 | 70 | 79 | 6.1 | 15.6 | 0.00 | 0.00 | 0.00 | 80 | 1014.6 |
| 20260510092006 | 70 | 37 | 7.0 | 15.6 | 0.00 | 0.00 | 0.00 | 78 | 1014.7 |
| 20260510091519 | 71 | 346 | 4.3 | 16.5 | 0.00 | 0.00 | 0.00 | 80 | 1014.4 |
| 20260510091006 | 71 | 25 | 7.8 | 16.5 | 0.00 | 0.00 | 0.00 | 80 | 1014.4 |
| 20260510090512 | 72 | 54 | 7.0 | 13.0 | 0.00 | 0.00 | 0.00 | 85 | 1014.3 |
| 20260510090021 | 73 | 360 | 7.0 | 13.0 | 0.00 | 0.00 | 0.00 | 90 | 1014.0 |
| 20260510085507 | 73 | 65 | 2.6 | 9.6 | 0.00 | 0.00 | 0.00 | 92 | 1013.8 |
| 20260510085006 | 73 | 360 | 3.5 | 9.6 | 0.00 | 0.00 | 0.00 | 92 | 1013.5 |
| 20260510084524 | 73 | 71 | 2.6 | 9.6 | 0.00 | 0.00 | 0.00 | 92 | 1013.1 |
| 20260510084011 | 73 | 64 | 0.9 | 7.0 | 0.00 | 0.00 | 0.00 | 91 | 1012.7 |
| 20260510083511 | 73 | 106 | 2.6 | 6.1 | 0.00 | 0.00 | 0.00 | 91 | 1012.7 |
| 20260510083007 | 74 | 80 | 1.7 | 7.8 | 0.00 | 0.00 | 0.00 | 91 | 1012.7 |
| 20260510082502 | 74 | 91 | 2.6 | 7.8 | 0.00 | 0.00 | 0.00 | 91 | 1012.7 |
| 20260510082007 | 74 | 41 | 0.9 | 6.1 | 0.00 | 0.00 | 0.00 | 91 | 1012.7 |
| 20260510081513 | 74 | 44 | 0.9 | 6.1 | 0.00 | 0.00 | 0.00 | 91 | 1012.6 |
| 20260510081005 | 74 | 41 | 0.0 | 4.3 | 0.00 | 0.00 | 0.00 | 91 | 1012.5 |
| 20260510080506 | 74 | 45 | 1.7 | 4.3 | 0.00 | 0.00 | 0.00 | 90 | 1012.2 |
| 20260510080019 | 74 | 75 | 0.0 | 0.9 | 0.00 | 0.00 | 0.00 | 90 | 1011.9 |
| 20260510075506 | 74 | 77 | 0.0 | 2.6 | 0.00 | 0.00 | 0.00 | 90 | 1011.7 |
| 20260510075006 | 74 | 78 | 0.0 | 2.6 | 0.00 | 0.00 | 0.00 | 90 | 1011.5 |
| 20260510074523 | 74 | 78 | 0.0 | 2.6 | 0.00 | 0.00 | 0.00 | 89 | 1011.4 |
| 20260510074012 | 74 | 86 | 0.0 | 3.5 | 0.00 | 0.00 | 0.00 | 89 | 1011.3 |
| 20260510073511 | 74 | 86 | 0.0 | 6.1 | 0.00 | 0.00 | 0.00 | 89 | 1011.1 |
| 20260510073031 | 74 | 134 | 0.9 | 9.6 | 0.00 | 0.00 | 0.00 | 89 | 1010.9 |
| 20260510072507 | 74 | 150 | 1.7 | 9.6 | 0.00 | 0.00 | 0.00 | 89 | 1010.7 |
| 20260510072013 | 75 | 140 | 4.3 | 12.2 | 0.00 | 0.00 | 0.00 | 89 | 1010.7 |
| 20260510071512 | 75 | 360 | 6.1 | 12.2 | 0.00 | 0.00 | 0.00 | 88 | 1010.9 |
| 20260510071004 | 75 | 125 | 2.6 | 7.0 | 0.00 | 0.00 | 0.00 | 88 | 1011.3 |
| 20260510070503 | 75 | 58 | 0.0 | 4.3 | 0.00 | 0.00 | 0.00 | 88 | 1011.8 |
| 20260510070016 | 75 | 43 | 0.0 | 4.3 | 0.00 | 0.00 | 0.00 | 87 | 1012.1 |
| 20260510065507 | 75 | 53 | 0.9 | 7.0 | 0.00 | 0.00 | 0.00 | 87 | 1012.4 |
| 20260510065004 | 76 | 336 | 0.9 | 7.0 | 0.00 | 0.00 | 0.00 | 86 | 1012.3 |
| 20260510064520 | 76 | 9 | 0.9 | 7.0 | 0.00 | 0.00 | 0.00 | 86 | 1012.3 |
| 20260510064008 | 76 | 317 | 2.6 | 7.0 | 0.00 | 0.00 | 0.00 | 85 | 1012.4 |
| 20260510063507 | 76 | 319 | 0.9 | 3.5 | 0.00 | 0.00 | 0.00 | 84 | 1012.3 |
| 20260510063033 | 76 | 316 | 0.0 | 2.6 | 0.00 | 0.00 | 0.00 | 84 | 1012.3 |
| 20260510062511 | 76 | 315 | 0.0 | 3.5 | 0.00 | 0.00 | 0.00 | 84 | 1012.3 |
| 20260510062010 | 76 | 315 | 0.9 | 3.5 | 0.00 | 0.00 | 0.00 | 84 | 1012.4 |
| 20260510061526 | 76 | 360 | 0.0 | 5.2 | 0.00 | 0.00 | 0.00 | 83 | 1012.2 |
| 20260510061011 | 76 | 130 | 0.0 | 5.2 | 0.00 | 0.00 | 0.00 | 83 | 1011.7 |
| 20260510060511 | 76 | 131 | 0.9 | 7.8 | 0.00 | 0.00 | 0.00 | 84 | 1011.2 |
| 20260510060019 | 76 | 135 | 0.9 | 7.0 | 0.00 | 0.00 | 0.00 | 84 | 1010.7 |
| 20260510055503 | 76 | 126 | 1.7 | 6.1 | 0.00 | 0.00 | 0.00 | 84 | 1010.6 |
| 20260510055006 | 76 | 136 | 0.9 | 6.1 | 0.00 | 0.00 | 0.00 | 84 | 1010.5 |
| 20260510054518 | 76 | 129 | 1.7 | 6.1 | 0.00 | 0.00 | 0.00 | 85 | 1010.5 |
| 20260510054007 | 76 | 131 | 1.7 | 6.1 | 0.00 | 0.00 | 0.00 | 85 | 1010.6 |
| 20260510053511 | 76 | 360 | 0.9 | 7.8 | 0.00 | 0.00 | 0.00 | 85 | 1010.3 |
| 20260510053023 | 76 | 160 | 2.6 | 7.8 | 0.00 | 0.00 | 0.00 | 85 | 1010.0 |
| 20260510052506 | 76 | 116 | 0.0 | 7.8 | 0.00 | 0.00 | 0.00 | 85 | 1010.0 |
| 20260510052008 | 76 | 159 | 0.9 | 7.8 | 0.00 | 0.00 | 0.00 | 85 | 1010.2 |
| 20260510051531 | 76 | 144 | 1.7 | 7.8 | 0.00 | 0.00 | 0.00 | 85 | 1010.2 |
| 20260510051008 | 76 | 154 | 1.7 | 7.8 | 0.00 | 0.00 | 0.00 | 85 | 1010.2 |
| 20260510050509 | 76 | 127 | 1.7 | 10.4 | 0.00 | 0.00 | 0.00 | 85 | 1010.1 |
| 20260510050029 | 76 | 131 | 2.6 | 11.3 | 0.00 | 0.00 | 0.00 | 85 | 1010.1 |
| 20260510045511 | 76 | 132 | 5.2 | 12.2 | 0.00 | 0.00 | 0.00 | 84 | 1010.0 |
| 20260510045012 | 76 | 119 | 1.7 | 12.2 | 0.00 | 0.00 | 0.00 | 84 | 1009.9 |
| 20260510044515 | 76 | 360 | 3.5 | 12.2 | 0.00 | 0.00 | 0.00 | 84 | 1009.6 |
| 20260510044003 | 76 | 141 | 3.5 | 9.6 | 0.00 | 0.00 | 0.00 | 83 | 1009.4 |
| 20260510043510 | 76 | 360 | 2.6 | 9.6 | 0.00 | 0.00 | 0.00 | 83 | 1009.5 |
| 20260510043025 | 76 | 132 | 3.5 | 9.6 | 0.00 | 0.00 | 0.00 | 82 | 1009.4 |
| 20260510042508 | 76 | 360 | 2.6 | 7.8 | 0.00 | 0.00 | 0.00 | 81 | 1009.5 |
| 20260510042007 | 77 | 360 | 0.9 | 7.0 | 0.00 | 0.00 | 0.00 | 80 | 1009.7 |
| 20260510041525 | 77 | 360 | 0.9 | 4.3 | 0.00 | 0.00 | 0.00 | 79 | 1009.9 |
| 20260510041007 | 77 | 93 | 0.0 | 5.2 | 0.00 | 0.00 | 0.00 | 77 | 1010.1 |
| 20260510040508 | 77 | 360 | 0.9 | 5.2 | 0.00 | 0.00 | 0.00 | 77 | 1010.1 |
| 20260510040029 | 77 | 360 | 0.0 | 3.5 | 0.00 | 0.00 | 0.00 | 76 | 1010.0 |
| 20260510035509 | 77 | 360 | 0.0 | 2.6 | 0.00 | 0.00 | 0.00 | 76 | 1010.0 |
| 20260510035013 | 77 | 360 | 0.0 | 4.3 | 0.00 | 0.00 | 0.00 | 75 | 1010.0 |
| 20260510034533 | 77 | 360 | 0.9 | 4.3 | 0.00 | 0.00 | 0.00 | 75 | 1009.8 |
| 20260510034013 | 77 | 127 | 0.0 | 0.0 | 0.00 | 0.00 | 0.00 | 76 | 1009.8 |
| 20260510033507 | 76 | 360 | 0.0 | 0.0 | 0.00 | 0.00 | 0.00 | 76 | 1009.7 |
| 20260510033016 | 76 | 360 | 0.0 | 0.0 | 0.00 | 0.00 | 0.00 | 76 | 1009.8 |
| 20260510032504 | 76 | 128 | 0.0 | 0.0 | 0.00 | 0.00 | 0.00 | 76 | 1009.9 |
| 20260510032009 | 76 | 360 | 0.0 | 0.0 | 0.00 | 0.00 | 0.00 | 76 | 1009.9 |
| 20260510031524 | 76 | 360 | 0.0 | 0.0 | 0.00 | 0.00 | 0.00 | 76 | 1010.0 |
| 20260510031007 | 76 | 360 | 0.0 | 0.0 | 0.00 | 0.00 | 0.00 | 75 | 1010.0 |
| 20260510030512 | 76 | 360 | 0.0 | 2.6 | 0.00 | 0.00 | 0.00 | 75 | 1010.0 |
| 20260510030010 | 77 | 360 | 0.0 | 2.6 | 0.00 | 0.00 | 0.00 | 75 | 1009.9 |
| 20260510025503 | 77 | 360 | 0.0 | 2.6 | 0.00 | 0.00 | 0.00 | 75 | 1009.9 |
| 20260510025004 | 77 | 360 | 0.0 | 2.6 | 0.00 | 0.00 | 0.00 | 75 | 1009.9 |
| 20260510024507 | 77 | 360 | 0.0 | 2.6 | 0.00 | 0.00 | 0.00 | 74 | 1009.9 |
| 20260510024006 | 77 | 360 | 0.0 | 2.6 | 0.00 | 0.00 | 0.00 | 74 | 1009.8 |
| 20260510023504 | 78 | 360 | 0.0 | 1.7 | 0.00 | 0.00 | 0.00 | 73 | 1009.9 |
| 20260510023010 | 78 | 360 | 0.0 | 1.7 | 0.00 | 0.00 | 0.00 | 73 | 1009.8 |
| 20260510022504 | 78 | 360 | 0.0 | 1.7 | 0.00 | 0.00 | 0.00 | 72 | 1009.7 |
| 20260510022004 | 78 | 360 | 0.0 | 1.7 | 0.00 | 0.00 | 0.00 | 72 | 1009.7 |
| 20260510021523 | 78 | 360 | 0.0 | 1.7 | 0.00 | 0.00 | 0.00 | 71 | 1009.5 |
| 20260510021008 | 78 | 360 | 0.0 | 1.7 | 0.00 | 0.00 | 0.00 | 71 | 1009.5 |
| 20260510020504 | 79 | 360 | 0.0 | 0.9 | 0.00 | 0.00 | 0.00 | 71 | 1009.5 |
| 20260510020007 | 79 | 360 | 0.0 | 0.9 | 0.00 | 0.00 | 0.00 | 70 | 1009.4 |
| 20260510015504 | 79 | 360 | 0.0 | 0.9 | 0.00 | 0.00 | 0.00 | 69 | 1009.4 |
| 20260510015005 | 79 | 360 | 0.0 | 0.9 | 0.00 | 0.00 | 0.00 | 68 | 1009.4 |
| 20260510014507 | 80 | 113 | 0.0 | 0.9 | 0.00 | 0.00 | 0.00 | 68 | 1009.3 |
| 20260510014004 | 80 | 113 | 0.0 | 1.7 | 0.00 | 0.00 | 0.00 | 67 | 1009.3 |
| 20260510013502 | 80 | 113 | 0.0 | 2.6 | 0.00 | 0.00 | 0.00 | 66 | 1009.2 |
| 20260510013009 | 80 | 360 | 0.0 | 2.6 | 0.00 | 0.00 | 0.00 | 66 | 1009.1 |
| 20260510012505 | 81 | 360 | 0.0 | 2.6 | 0.00 | 0.00 | 0.00 | 65 | 1009.1 |
| 20260510012006 | 81 | 360 | 0.0 | 2.6 | 0.00 | 0.00 | 0.00 | 65 | 1009.0 |
| 20260510011510 | 81 | 360 | 0.0 | 2.6 | 0.00 | 0.00 | 0.00 | 64 | 1008.9 |
| 20260510011004 | 82 | 360 | 0.0 | 1.7 | 0.00 | 0.00 | 0.00 | 63 | 1008.8 |
| 20260510010505 | 82 | 360 | 0.0 | 1.7 | 0.00 | 0.00 | 0.00 | 63 | 1008.7 |
| 20260510010010 | 82 | 360 | 0.0 | 1.7 | 0.00 | 0.00 | 0.00 | 62 | 1008.6 |
| 20260510005502 | 83 | 360 | 0.0 | 1.7 | 0.00 | 0.00 | 0.00 | 63 | 1008.5 |
| 20260510005004 | 83 | 360 | 0.0 | 0.9 | 0.00 | 0.00 | 0.00 | 63 | 1008.5 |
| 20260510004504 | 83 | 360 | 0.0 | 2.6 | 0.00 | 0.00 | 0.00 | 62 | 1008.6 |
| 20260510004004 | 83 | 360 | 0.0 | 2.6 | 0.00 | 0.00 | 0.00 | 61 | 1008.6 |
| 20260510003502 | 84 | 360 | 0.0 | 2.6 | 0.00 | 0.00 | 0.00 | 60 | 1008.6 |
| 20260510003008 | 84 | 101 | 0.0 | 2.6 | 0.00 | 0.00 | 0.00 | 59 | 1008.5 |
| 20260510002501 | 84 | 360 | 0.9 | 5.2 | 0.00 | 0.00 | 0.00 | 58 | 1008.6 |
| 20260510002003 | 84 | 360 | 0.0 | 5.2 | 0.00 | 0.00 | 0.00 | 58 | 1008.6 |
| 20260510001508 | 85 | 360 | 0.9 | 5.2 | 0.00 | 0.00 | 0.00 | 57 | 1008.7 |
| 20260510001003 | 85 | 360 | 0.0 | 4.3 | 0.00 | 0.00 | 0.00 | 57 | 1008.7 |
| 20260510000502 | 85 | 46 | 1.7 | 4.3 | 0.00 | 0.00 | 0.00 | 56 | 1008.7 |
| 20260510000017 | 85 | 360 | 0.9 | 3.5 | 0.00 | 0.00 | 0.00 | 55 | 1008.6 |
| 20260509235502 | 85 | 360 | 0.9 | 4.3 | 0.00 | 0.00 | 0.00 | 55 | 1008.5 |
| 20260509235004 | 85 | 360 | 0.9 | 4.3 | 0.00 | 0.00 | 0.00 | 55 | 1008.5 |
| 20260509234512 | 86 | 360 | 1.7 | 4.3 | 0.00 | 0.00 | 0.00 | 54 | 1008.5 |
| 20260509234003 | 86 | 360 | 0.9 | 4.3 | 0.00 | 0.00 | 0.00 | 53 | 1008.5 |
| 20260509233503 | 86 | 360 | 0.9 | 4.3 | 0.00 | 0.00 | 0.00 | 54 | 1008.5 |
| 20260509233004 | 86 | 360 | 0.0 | 2.6 | 0.00 | 0.00 | 0.00 | 53 | 1008.5 |
| 20260509232502 | 86 | 360 | 0.9 | 3.5 | 0.00 | 0.00 | 0.00 | 53 | 1008.7 |
| 20260509232002 | 86 | 360 | 1.7 | 4.3 | 0.00 | 0.00 | 0.00 | 53 | 1008.7 |
| 20260509231512 | 86 | 360 | 0.9 | 4.3 | 0.00 | 0.00 | 0.00 | 53 | 1008.8 |
| 20260509231003 | 86 | 360 | 0.9 | 4.3 | 0.00 | 0.00 | 0.00 | 52 | 1008.7 |
| 20260509230506 | 86 | 72 | 0.9 | 3.5 | 0.00 | 0.00 | 0.00 | 54 | 1008.7 |
| 20260509230012 | 86 | 83 | 0.0 | 3.5 | 0.00 | 0.00 | 0.00 | 52 | 1008.7 |
| 20260509225504 | 86 | 360 | 0.9 | 3.5 | 0.00 | 0.00 | 0.00 | 52 | 1008.7 |
| 20260509225002 | 86 | 360 | 0.0 | 3.5 | 0.00 | 0.00 | 0.00 | 51 | 1008.7 |
| 20260509224514 | 86 | 360 | 0.9 | 4.3 | 0.00 | 0.00 | 0.00 | 52 | 1008.6 |
| 20260509224006 | 86 | 360 | 0.9 | 4.3 | 0.00 | 0.00 | 0.00 | 53 | 1008.6 |
| 20260509223506 | 86 | 360 | 0.9 | 4.3 | 0.00 | 0.00 | 0.00 | 55 | 1008.6 |
| 20260509223016 | 86 | 82 | 0.0 | 4.3 | 0.00 | 0.00 | 0.00 | 55 | 1008.6 |
| 20260509222504 | 86 | 360 | 0.9 | 3.5 | 0.00 | 0.00 | 0.00 | 54 | 1008.5 |
| 20260509222006 | 86 | 62 | 0.9 | 7.0 | 0.00 | 0.00 | 0.00 | 54 | 1008.5 |
| 20260509221510 | 86 | 360 | 1.7 | 7.0 | 0.00 | 0.00 | 0.00 | 54 | 1008.5 |
| 20260509221004 | 87 | 79 | 0.9 | 4.3 | 0.00 | 0.00 | 0.00 | 53 | 1008.6 |
| 20260509220503 | 86 | 53 | 0.9 | 4.3 | 0.00 | 0.00 | 0.00 | 54 | 1008.5 |
| 20260509220013 | 86 | 86 | 0.9 | 7.0 | 0.00 | 0.00 | 0.00 | 52 | 1008.6 |
| 20260509215507 | 86 | 40 | 1.7 | 7.0 | 0.00 | 0.00 | 0.00 | 51 | 1008.6 |
| 20260509215008 | 86 | 93 | 1.7 | 6.1 | 0.00 | 0.00 | 0.00 | 56 | 1008.7 |
| 20260509214516 | 86 | 29 | 0.9 | 5.2 | 0.00 | 0.00 | 0.00 | 54 | 1008.8 |
| 20260509214008 | 86 | 55 | 1.7 | 5.2 | 0.00 | 0.00 | 0.00 | 57 | 1008.8 |
| 20260509213506 | 86 | 87 | 0.0 | 6.1 | 0.00 | 0.00 | 0.00 | 57 | 1008.8 |
| 20260509213018 | 86 | 52 | 0.9 | 6.1 | 0.00 | 0.00 | 0.00 | 55 | 1008.9 |
| 20260509212504 | 86 | 67 | 0.0 | 5.2 | 0.00 | 0.00 | 0.00 | 57 | 1008.9 |
| 20260509212007 | 86 | 91 | 0.0 | 7.0 | 0.00 | 0.00 | 0.00 | 57 | 1009.0 |
| 20260509211516 | 86 | 360 | 0.9 | 7.0 | 0.00 | 0.00 | 0.00 | 58 | 1009.1 |
| 20260509211006 | 86 | 75 | 3.5 | 7.0 | 0.00 | 0.00 | 0.00 | 56 | 1009.1 |
| 20260509210506 | 87 | 98 | 0.9 | 5.2 | 0.00 | 0.00 | 0.00 | 56 | 1009.2 |
| 20260509210012 | 87 | 73 | 0.0 | 5.2 | 0.00 | 0.00 | 0.00 | 55 | 1009.2 |
| 20260509205502 | 87 | 360 | 0.0 | 5.2 | 0.00 | 0.00 | 0.00 | 59 | 1009.4 |
| 20260509205005 | 86 | 129 | 0.9 | 7.0 | 0.00 | 0.00 | 0.00 | 58 | 1009.5 |
| 20260509204518 | 85 | 360 | 3.5 | 7.0 | 0.00 | 0.00 | 0.00 | 57 | 1009.6 |
| 20260509204004 | 86 | 360 | 1.7 | 5.2 | 0.00 | 0.00 | 0.00 | 58 | 1009.7 |
| 20260509203507 | 86 | 47 | 0.9 | 5.2 | 0.00 | 0.00 | 0.00 | 59 | 1009.7 |
| 20260509203019 | 86 | 34 | 0.9 | 4.3 | 0.00 | 0.00 | 0.00 | 59 | 1009.8 |
| 20260509202507 | 85 | 88 | 1.7 | 4.3 | 0.00 | 0.00 | 0.00 | 60 | 1009.9 |
| 20260509202011 | 85 | 314 | 0.9 | 4.3 | 0.00 | 0.00 | 0.00 | 61 | 1009.9 |
| 20260509201520 | 85 | 123 | 0.9 | 6.1 | 0.00 | 0.00 | 0.00 | 63 | 1009.9 |
| 20260509201010 | 85 | 360 | 1.7 | 6.1 | 0.00 | 0.00 | 0.00 | 63 | 1010.0 |
| 20260509200503 | 84 | 360 | 1.7 | 7.0 | 0.00 | 0.00 | 0.00 | 63 | 1010.0 |
| 20260509200019 | 84 | 42 | 2.6 | 7.0 | 0.00 | 0.00 | 0.00 | 64 | 1010.0 |
| 20260509195507 | 84 | 360 | 1.7 | 7.0 | 0.00 | 0.00 | 0.00 | 63 | 1009.9 |
| 20260509195006 | 85 | 111 | 2.6 | 7.0 | 0.00 | 0.00 | 0.00 | 63 | 1010.0 |
| 20260509194510 | 85 | 51 | 0.9 | 5.2 | 0.00 | 0.00 | 0.00 | 66 | 1010.0 |
| 20260509194004 | 84 | 360 | 0.9 | 5.2 | 0.00 | 0.00 | 0.00 | 63 | 1010.1 |
| 20260509193508 | 84 | 307 | 0.9 | 7.0 | 0.00 | 0.00 | 0.00 | 66 | 1010.2 |
| 20260509193016 | 83 | 53 | 1.7 | 8.7 | 0.00 | 0.00 | 0.00 | 66 | 1010.2 |
| 20260509192507 | 84 | 360 | 3.5 | 8.7 | 0.00 | 0.00 | 0.00 | 66 | 1010.3 |
| 20260509192007 | 83 | 37 | 0.0 | 7.8 | 0.00 | 0.00 | 0.00 | 68 | 1010.3 |
| 20260509191518 | 83 | 46 | 0.9 | 7.8 | 0.00 | 0.00 | 0.00 | 68 | 1010.3 |
| 20260509191007 | 83 | 331 | 0.0 | 7.0 | 0.00 | 0.00 | 0.00 | 68 | 1010.4 |
| 20260509190506 | 83 | 59 | 1.7 | 7.0 | 0.00 | 0.00 | 0.00 | 68 | 1010.4 |
| 20260509190021 | 83 | 36 | 0.9 | 7.8 | 0.00 | 0.00 | 0.00 | 70 | 1010.4 |
| 20260509185506 | 83 | 69 | 0.9 | 7.8 | 0.00 | 0.00 | 0.00 | 69 | 1010.4 |
| 20260509185007 | 82 | 44 | 0.9 | 7.0 | 0.00 | 0.00 | 0.00 | 70 | 1010.4 |
| 20260509184523 | 82 | 61 | 3.5 | 8.7 | 0.00 | 0.00 | 0.00 | 70 | 1010.4 |
| 20260509184011 | 83 | 43 | 2.6 | 8.7 | 0.00 | 0.00 | 0.00 | 70 | 1010.4 |
| 20260509183504 | 82 | 321 | 0.0 | 7.8 | 0.00 | 0.00 | 0.00 | 70 | 1010.4 |
| 20260509183015 | 82 | 360 | 1.7 | 7.8 | 0.00 | 0.00 | 0.00 | 71 | 1010.5 |
| 20260509182505 | 82 | 25 | 0.0 | 9.6 | 0.00 | 0.00 | 0.00 | 71 | 1010.6 |
| 20260509182004 | 82 | 360 | 3.5 | 9.6 | 0.00 | 0.00 | 0.00 | 72 | 1010.6 |
| 20260509181520 | 81 | 70 | 2.6 | 7.8 | 0.00 | 0.00 | 0.00 | 71 | 1010.7 |
| 20260509181007 | 82 | 360 | 2.6 | 7.0 | 0.00 | 0.00 | 0.00 | 71 | 1010.6 |
| 20260509180504 | 82 | 288 | 1.7 | 6.1 | 0.00 | 0.00 | 0.00 | 71 | 1010.8 |
| 20260509180020 | 82 | 28 | 1.7 | 7.0 | 0.00 | 0.00 | 0.00 | 71 | 1010.9 |
| 20260509175506 | 81 | 68 | 1.7 | 7.0 | 0.00 | 0.00 | 0.00 | 71 | 1010.9 |
| 20260509175003 | 81 | 321 | 0.9 | 6.1 | 0.00 | 0.00 | 0.00 | 72 | 1011.0 |
| 20260509174506 | 81 | 319 | 0.0 | 7.0 | 0.00 | 0.00 | 0.00 | 73 | 1011.0 |
| 20260509174005 | 81 | 39 | 2.6 | 7.0 | 0.00 | 0.00 | 0.00 | 72 | 1011.0 |
| 20260509173503 | 81 | 34 | 1.7 | 7.0 | 0.00 | 0.00 | 0.00 | 73 | 1011.0 |
| 20260509173011 | 81 | 58 | 1.7 | 6.1 | 0.00 | 0.00 | 0.00 | 74 | 1011.1 |
| 20260509172504 | 81 | 342 | 0.0 | 3.5 | 0.00 | 0.00 | 0.00 | 73 | 1011.1 |
| 20260509172005 | 80 | 347 | 0.0 | 5.2 | 0.00 | 0.00 | 0.00 | 74 | 1011.1 |
| 20260509171525 | 80 | 49 | 1.7 | 5.2 | 0.00 | 0.00 | 0.00 | 74 | 1011.2 |
| 20260509171004 | 80 | 313 | 1.7 | 5.2 | 0.00 | 0.00 | 0.00 | 74 | 1011.2 |
| 20260509170507 | 80 | 310 | 1.7 | 7.0 | 0.00 | 0.00 | 0.00 | 74 | 1011.2 |
| 20260509170028 | 80 | 309 | 1.7 | 7.0 | 0.00 | 0.00 | 0.00 | 74 | 1011.2 |
| 20260509165508 | 80 | 10 | 0.9 | 7.0 | 0.00 | 0.00 | 0.00 | 75 | 1011.1 |
| 20260509165008 | 79 | 5 | 1.7 | 7.8 | 0.00 | 0.00 | 0.00 | 74 | 1011.2 |
| 20260509164522 | 79 | 328 | 3.5 | 7.8 | 0.00 | 0.00 | 0.00 | 75 | 1011.2 |
| 20260509164006 | 79 | 360 | 2.6 | 7.8 | 0.00 | 0.00 | 0.00 | 75 | 1011.1 |
| 20260509163503 | 79 | 360 | 1.7 | 8.7 | 0.00 | 0.00 | 0.00 | 75 | 1011.2 |
| 20260509163010 | 79 | 329 | 1.7 | 8.7 | 0.00 | 0.00 | 0.00 | 75 | 1011.2 |
| 20260509162506 | 78 | 333 | 0.9 | 5.2 | 0.00 | 0.00 | 0.00 | 77 | 1011.2 |
| 20260509162006 | 78 | 29 | 0.0 | 8.7 | 0.00 | 0.00 | 0.00 | 77 | 1011.1 |
| 20260509161511 | 78 | 312 | 2.6 | 8.7 | 0.00 | 0.00 | 0.00 | 76 | 1011.1 |
| 20260509161003 | 77 | 360 | 1.7 | 7.8 | 0.00 | 0.00 | 0.00 | 78 | 1011.2 |
| 20260509160503 | 77 | 360 | 3.5 | 7.8 | 0.00 | 0.00 | 0.00 | 77 | 1011.2 |
| 20260509160018 | 77 | 311 | 1.7 | 7.8 | 0.00 | 0.00 | 0.00 | 78 | 1011.2 |
| 20260509155505 | 77 | 317 | 1.7 | 7.8 | 0.00 | 0.00 | 0.00 | 79 | 1011.2 |
| 20260509155008 | 76 | 329 | 2.6 | 7.0 | 0.00 | 0.00 | 0.00 | 78 | 1011.0 |
| 20260509154520 | 77 | 278 | 1.7 | 5.2 | 0.00 | 0.00 | 0.00 | 79 | 1011.1 |